Mphakane, South Africa
Current Conditions -  °F | °C
As of 2:00 AM on Friday 19 Dec 2014 (Local Time) from FAPP Reporting Station
NA  
Wind Chill: 64°   Ceiling: NA
Heat Index: 64°   Visibility: NA
Dew Point: 63°   Wind: 1mph
Humidity: 94%   Direction: 180°S
Pressure: 30.03"   Gusts: NA
Location:  23.52°S, 29.7°E
Report Text: FAPP 190000Z AUTO 18001KT //// // ////// 18/17 Q1017
Loading
Personal Weather Stations






























Interactive Weather Map New forecast layout! Learn more

10-Day Weather Forecast

Advertisements
Track Severe Weather on mobile